This is the latest recevied weather packets stored in our database for station/object EB2GLU-13. If no packets are shown the sender has not sent any weather packets the latest 10 day(s).
| Time | Temp. | Humidity | Pressure | Rain* | Wind** | Luminosity | Snow |
|---|---|---|---|---|---|---|---|
| 1777237137 | 16.67° C | 81% | 1019.6 hPa | 0 mm | - | - | - |
| 1777236387 | 16.67° C | 81% | 1019.5 hPa | 0 mm | - | - | - |
| 1777235637 | 16.67° C | 81% | 1019.3 hPa | 0 mm | - | - | - |
| 1777234887 | 16.67° C | 82% | 1019.2 hPa | 0 mm | - | - | - |
| 1777234137 | 16.67° C | 82% | 1019 hPa | 0 mm | - | - | - |
| 1777233387 | 16.11° C | 82% | 1018.8 hPa | 0 mm | - | - | - |
| 1777232637 | 16.67° C | 82% | 1018.5 hPa | 0 mm | - | - | - |
| 1777231887 | 16.11° C | 83% | 1018.2 hPa | 0 mm | - | - | - |
| 1777231137 | 16.11° C | 83% | 1018.5 hPa | 0 mm | - | - | - |
| 1777230387 | 16.67° C | 81% | 1018.3 hPa | 0 mm | - | - | - |
| 1777229637 | 17.22° C | 79% | 1018.2 hPa | 0 mm | - | - | - |
| 1777228887 | 17.22° C | 79% | 1017.8 hPa | 0 mm | - | - | - |
| 1777228136 | 17.78° C | 77% | 1018 hPa | 0 mm | - | - | - |
| 1777227387 | 18.33° C | 75% | 1017.5 hPa | 0 mm | - | - | - |
| 1777226636 | 20° C | 71% | 1017.6 hPa | 0 mm | - | - | - |
| 1777225886 | 21.67° C | 67% | 1017.5 hPa | 0 mm | - | - | - |
| 1777225136 | 21.67° C | 67% | 1017.5 hPa | 0 mm | - | - | - |
| 1777224386 | 21.11° C | 68% | 1017.5 hPa | 0 mm | - | - | - |
| 1777223636 | 21.11° C | 68% | 1017.4 hPa | 0 mm | - | - | - |
| 1777222886 | 19.44° C | 73% | 1017.3 hPa | 0 mm | - | - | - |
| 1777222136 | 21.11° C | 68% | 1017.3 hPa | 0 mm | - | - | - |
| 1777221386 | 22.22° C | 65% | 1017.4 hPa | 0 mm | - | - | - |
| 1777220636 | 22.78° C | 64% | 1017 hPa | 0 mm | - | - | - |
| 1777219886 | 25° C | 58% | 1017.2 hPa | 0 mm | - | - | - |
| 1777219136 | 25° C | 59% | 1017.1 hPa | 0 mm | - | - | - |
* Rain latest hour (hover to see other rain measurements)
** Current wind speed in m/s (hover to see current wind gust speed)